Laurentia Desgagnes — XJBQ — position and weather

sailwx.info

Track history (hours):
 
Tides and Currents Weather Stations Pressure Air Temp Water Temp Dewpoint Dewpoint Depression Visibility Wind Speed Wind Dir Waves Ship Positions

Laurentia Desgagnes

Last reported at 2018-Jun-16 12:30 UTC. Time now 2018-Jun-18 08:01 UTC.
Position N 46°06' W 072°60'.

Length 228 m; draft 11 m.

Type: Ship. MMSI: 316011550.

Date/timePositionNaut miles runAvg speedWind from/ knotsBaromVisibWave heightAir tempDewpointWater temp
2018-Jun-16 12:30N 46°06' W 072°60'612.8
2018-Jun-16 12:00N 46°03' W 073°08'612.0
2018-Jun-16 11:30N 45°58' W 073°12'713.3
2018-Jun-16 11:00N 45°52' W 073°16'713.5
2018-Jun-16 10:30N 45°46' W 073°22'611.7
2018-Jun-16 10:00N 45°42' W 073°27'5 8.1
2018-Jun-16 09:27N 45°38' W 073°30'  
2018-Jun-13 11:02N 45°38' W 073°29'0 4.6
2018-Jun-13 11:00N 45°38' W 073°29'4 8.3
2018-Jun-13 10:30N 45°42' W 073°27'510.4
2018-Jun-13 10:00N 45°46' W 073°23'510.5
2018-Jun-13 09:30N 45°50' W 073°17'510.5
2018-Jun-13 09:00N 45°54' W 073°13'510.7
2018-Jun-13 08:30N 45°60' W 073°11'5 9.3
2018-Jun-13 08:00N 46°03' W 073°07'  
Track history (hours):
 
Tides and Currents Weather Stations Pressure Air Temp Water Temp Dewpoint Dewpoint Depression Visibility Wind Speed Wind Dir Waves Ship Positions

Laurentia Desgagnes

Last reported at 2018-Jun-16 12:30 UTC. Time now 2018-Jun-18 08:01 UTC.
Position N 46°06' W 072°60'.

Length 228 m; draft 11 m.

Type: Ship. MMSI: 316011550.

Date/timePositionNaut miles runAvg speedWind from/ knotsBaromVisibWave heightAir tempDewpointWater temp
2018-Jun-16 12:30N 46°06' W 072°60'612.8
2018-Jun-16 12:00N 46°03' W 073°08'612.0
2018-Jun-16 11:30N 45°58' W 073°12'713.3
2018-Jun-16 11:00N 45°52' W 073°16'713.5
2018-Jun-16 10:30N 45°46' W 073°22'611.7
2018-Jun-16 10:00N 45°42' W 073°27'5 8.1
2018-Jun-16 09:27N 45°38' W 073°30'  
2018-Jun-13 11:02N 45°38' W 073°29'0 4.6
2018-Jun-13 11:00N 45°38' W 073°29'4 8.3
2018-Jun-13 10:30N 45°42' W 073°27'510.4
2018-Jun-13 10:00N 45°46' W 073°23'510.5
2018-Jun-13 09:30N 45°50' W 073°17'510.5
2018-Jun-13 09:00N 45°54' W 073°13'510.7
2018-Jun-13 08:30N 45°60' W 073°11'5 9.3
2018-Jun-13 08:00N 46°03' W 073°07'  

Dump ship's entire track history